createdAt,value
2023-02-14T00:00:10.410Z,54.71
2023-02-14T00:01:14.774Z,54.48
2023-02-14T00:02:19.256Z,54.76
2023-02-14T00:03:23.576Z,54.78
2023-02-14T00:04:28.175Z,54.59
2023-02-14T00:05:32.672Z,54.52
2023-02-14T00:06:36.988Z,54.96
2023-02-14T00:07:41.289Z,55.04
2023-02-14T00:08:45.597Z,54.59
2023-02-14T00:09:49.890Z,55.06
2023-02-14T00:10:54.165Z,55.17
2023-02-14T00:11:58.450Z,54.64
2023-02-14T00:13:02.782Z,55.12
2023-02-14T00:14:07.094Z,55.2
2023-02-14T00:15:11.398Z,54.82
2023-02-14T00:16:15.878Z,54.86
2023-02-14T00:17:20.182Z,54.81
2023-02-14T00:18:24.527Z,55.02
2023-02-14T00:19:28.811Z,55.02
2023-02-14T00:20:33.101Z,55.14
2023-02-14T00:21:37.398Z,54.9
2023-02-14T00:22:41.705Z,55.16
2023-02-14T00:23:46.005Z,55.27
2023-02-14T00:24:50.271Z,55.06
2023-02-14T00:25:54.582Z,54.8
2023-02-14T00:26:58.884Z,55.01
2023-02-14T00:28:03.230Z,55.04
2023-02-14T00:29:07.532Z,55.42
2023-02-14T00:30:12.047Z,55.17
2023-02-14T00:31:16.920Z,55.29
2023-02-14T00:32:21.254Z,55.3
2023-02-14T00:33:26.015Z,55.18
2023-02-14T00:34:30.356Z,55.42
2023-02-14T00:35:34.655Z,55.09
2023-02-14T00:36:38.997Z,55.02
2023-02-14T00:37:43.311Z,54.93
2023-02-14T00:38:47.635Z,54.74
2023-02-14T00:39:51.961Z,54.87
2023-02-14T00:40:56.431Z,55.53
2023-02-14T00:42:00.774Z,55.25
2023-02-14T00:43:05.065Z,55.39
2023-02-14T00:44:09.335Z,56.08
2023-02-14T00:45:13.614Z,55.85
2023-02-14T00:46:18.111Z,55.9
2023-02-14T00:47:22.388Z,56.36
2023-02-14T00:48:26.672Z,56.34
2023-02-14T00:49:30.969Z,55.93
2023-02-14T00:50:35.281Z,56.38
2023-02-14T00:51:39.566Z,56.35
2023-02-14T00:52:44.877Z,56.18
2023-02-14T00:53:49.191Z,55.85
2023-02-14T00:54:53.475Z,56.23
2023-02-14T00:55:57.754Z,56.4
2023-02-14T00:57:02.128Z,56.45
2023-02-14T00:58:06.472Z,56.45
2023-02-14T00:59:10.764Z,56
2023-02-14T01:00:15.036Z,56.43
2023-02-14T01:01:19.606Z,56.45
2023-02-14T01:02:24.069Z,56.46
2023-02-14T01:03:28.413Z,56.59
2023-02-14T01:04:32.767Z,56.58
2023-02-14T01:05:37.081Z,56.08
2023-02-14T01:06:41.392Z,56.48
2023-02-14T01:07:45.764Z,56.63
2023-02-14T01:08:50.324Z,56.7
2023-02-14T01:09:54.603Z,56.29
2023-02-14T01:11:00.152Z,56.44
2023-02-14T01:12:04.684Z,56.24
2023-02-14T01:13:08.961Z,56.7
2023-02-14T01:14:13.233Z,56.3
2023-02-14T01:15:17.540Z,56.17
2023-02-14T01:16:22.044Z,56.07
2023-02-14T01:17:26.361Z,56.6
2023-02-14T01:18:30.730Z,56.34
2023-02-14T01:19:34.993Z,56.64
2023-02-14T01:20:39.361Z,56.71
2023-02-14T01:21:43.789Z,56.29
2023-02-14T01:22:48.094Z,56.74
2023-02-14T01:23:52.493Z,56.72
2023-02-14T01:24:56.799Z,56.68
2023-02-14T01:26:01.127Z,57.04
2023-02-14T01:27:05.418Z,56.42
2023-02-14T01:28:09.709Z,56.46
2023-02-14T01:29:13.989Z,56.19
2023-02-14T01:30:18.462Z,56.91
2023-02-14T01:31:23.355Z,56.05
2023-02-14T01:32:27.772Z,56.7
2023-02-14T01:33:32.117Z,56.9
2023-02-14T01:34:36.422Z,56.29
2023-02-14T01:35:40.941Z,56.88
2023-02-14T01:36:45.229Z,56.8
2023-02-14T01:37:49.494Z,56.98
2023-02-14T01:38:53.780Z,56.96
2023-02-14T01:39:58.093Z,56.69
2023-02-14T01:41:03.128Z,56.95
2023-02-14T01:42:07.422Z,56.29
2023-02-14T01:43:11.735Z,56.89
2023-02-14T01:44:16.092Z,56.91
2023-02-14T01:45:20.385Z,56.98
2023-02-14T01:46:24.684Z,56.73
2023-02-14T01:47:28.969Z,56.82
2023-02-14T01:48:33.267Z,56.83
2023-02-14T01:49:37.584Z,56.94
2023-02-14T01:50:41.863Z,56.56
2023-02-14T01:51:46.149Z,56.51
2023-02-14T01:52:50.426Z,56.6
2023-02-14T01:53:54.703Z,56.24
2023-02-14T01:54:58.990Z,56.89
2023-02-14T01:56:03.301Z,56.64
2023-02-14T01:57:07.573Z,56.5
2023-02-14T01:58:12.049Z,56.94
2023-02-14T01:59:16.346Z,56.65
2023-02-14T02:00:20.693Z,56.69
2023-02-14T02:01:25.255Z,56.34
2023-02-14T02:02:29.806Z,56.29
2023-02-14T02:03:34.122Z,56.89
2023-02-14T02:04:38.418Z,56.82
2023-02-14T02:05:42.705Z,56.48
2023-02-14T02:06:47.036Z,57
2023-02-14T02:07:51.648Z,57.08
2023-02-14T02:08:55.969Z,56.46
2023-02-14T02:10:00.268Z,57.05
2023-02-14T02:11:04.587Z,56.75
2023-02-14T02:12:08.892Z,56.82
2023-02-14T02:13:13.190Z,56.83
2023-02-14T02:14:17.473Z,56.99
2023-02-14T02:15:21.767Z,56.98
2023-02-14T02:16:26.251Z,57.24
2023-02-14T02:17:30.563Z,57.2
2023-02-14T02:18:34.880Z,56.46
2023-02-14T02:19:39.161Z,57.14
2023-02-14T02:20:43.437Z,57.08
2023-02-14T02:21:47.742Z,56.57
2023-02-14T02:22:52.050Z,56.37
2023-02-14T02:23:56.330Z,57.05
2023-02-14T02:25:00.636Z,57.16
2023-02-14T02:26:04.935Z,56.59
2023-02-14T02:27:10.643Z,57.02
2023-02-14T02:28:14.967Z,57.2
2023-02-14T02:29:19.282Z,56.47
2023-02-14T02:30:23.905Z,56.52
2023-02-14T02:31:28.735Z,57.12
2023-02-14T02:32:33.068Z,56.66
2023-02-14T02:33:37.341Z,57.11
2023-02-14T02:34:41.624Z,56.88
2023-02-14T02:35:45.934Z,56.88
2023-02-14T02:36:50.224Z,56.74
2023-02-14T02:37:54.505Z,57.1
2023-02-14T02:38:58.783Z,57.26
2023-02-14T02:40:03.153Z,56.62
2023-02-14T02:41:07.661Z,57.06
2023-02-14T02:42:11.942Z,57.27
2023-02-14T02:43:16.286Z,56.49
2023-02-14T02:44:20.588Z,57.09
2023-02-14T02:45:24.867Z,56.54
2023-02-14T02:46:29.370Z,56.87
2023-02-14T02:47:33.762Z,57.02
2023-02-14T02:48:38.081Z,57.35
2023-02-14T02:49:42.383Z,57.24
2023-02-14T02:50:46.663Z,56.98
2023-02-14T02:51:50.973Z,56.66
2023-02-14T02:52:55.257Z,56.93
2023-02-14T02:53:59.568Z,57.28
2023-02-14T02:55:03.950Z,57.48
2023-02-14T02:56:08.243Z,56.87
2023-02-14T02:57:12.555Z,56.87
2023-02-14T02:58:16.854Z,56.69
2023-02-14T02:59:21.152Z,56.72
2023-02-14T03:00:25.467Z,57.09
2023-02-14T03:01:30.012Z,56.86
2023-02-14T03:02:34.344Z,57.21
2023-02-14T03:03:38.837Z,57.01
2023-02-14T03:04:43.389Z,56.67
2023-02-14T03:05:47.731Z,57.4
2023-02-14T03:06:52.020Z,57.02
2023-02-14T03:07:56.321Z,57.06
2023-02-14T03:09:00.607Z,57.09
2023-02-14T03:10:04.917Z,57.35
2023-02-14T03:11:09.202Z,56.93
2023-02-14T03:12:13.511Z,57.3
2023-02-14T03:13:17.794Z,57.21
2023-02-14T03:14:22.128Z,57.04
2023-02-14T03:15:26.628Z,56.98
2023-02-14T03:16:30.935Z,57.1
2023-02-14T03:17:35.225Z,57.59
2023-02-14T03:18:39.523Z,56.89
2023-02-14T03:19:43.828Z,57.75
2023-02-14T03:20:48.104Z,57.63
2023-02-14T03:21:52.402Z,57.63
2023-02-14T03:22:56.704Z,57.12
2023-02-14T03:24:00.969Z,57.8
2023-02-14T03:25:05.283Z,57.53
2023-02-14T03:26:09.617Z,57.07
2023-02-14T03:27:13.905Z,57.16
2023-02-14T03:28:18.219Z,57.49
2023-02-14T03:29:22.504Z,57.63
2023-02-14T03:30:27.124Z,57.03
2023-02-14T03:31:31.901Z,57.75
2023-02-14T03:32:36.266Z,57.5
2023-02-14T03:33:40.584Z,57.29
2023-02-14T03:34:44.889Z,57.31
2023-02-14T03:35:49.229Z,57.75
2023-02-14T03:36:53.514Z,57.75
2023-02-14T03:37:57.817Z,57.58
2023-02-14T03:39:02.105Z,57.53
2023-02-14T03:40:06.405Z,57.5
2023-02-14T03:41:10.700Z,57.64
2023-02-14T03:42:15.048Z,58.02
2023-02-14T03:43:19.330Z,57.72
2023-02-14T03:44:23.638Z,57.52
2023-02-14T03:45:28.043Z,57.27
2023-02-14T03:46:32.801Z,57.53
2023-02-14T03:47:37.169Z,57.72
2023-02-14T03:48:41.444Z,57.48
2023-02-14T03:49:45.952Z,58.33
2023-02-14T03:50:50.290Z,57.51
2023-02-14T03:51:54.574Z,57.46
2023-02-14T03:52:58.919Z,57.7
2023-02-14T03:54:03.254Z,57.39
2023-02-14T03:55:07.602Z,57.62
2023-02-14T03:56:11.917Z,57.42
2023-02-14T03:57:16.364Z,57.17
2023-02-14T03:58:20.669Z,58.07
2023-02-14T03:59:25.100Z,58.2
2023-02-14T04:00:29.382Z,58.16
2023-02-14T04:01:33.885Z,57.63
2023-02-14T04:02:38.240Z,57.98
2023-02-14T04:03:42.789Z,58.18
2023-02-14T04:04:47.117Z,57.76
2023-02-14T04:05:51.408Z,58.01
2023-02-14T04:06:55.693Z,57.63
2023-02-14T04:08:00.003Z,57.68
2023-02-14T04:09:04.327Z,58.41
2023-02-14T04:10:08.612Z,58.51
2023-02-14T04:11:12.910Z,57.6
2023-02-14T04:12:35.926Z,58.57
2023-02-14T04:13:41.545Z,58.27
2023-02-14T04:14:45.822Z,57.87
2023-02-14T04:15:50.496Z,57.71
2023-02-14T04:16:54.890Z,57.88
2023-02-14T04:17:59.197Z,58.03
2023-02-14T04:19:03.480Z,57.84
2023-02-14T04:20:07.755Z,58
2023-02-14T04:21:12.057Z,57.65
2023-02-14T04:22:16.362Z,58.18
2023-02-14T04:23:20.669Z,57.81
2023-02-14T04:24:24.946Z,57.68
2023-02-14T04:25:29.264Z,57.73
2023-02-14T04:26:33.549Z,57.81
2023-02-14T04:27:37.823Z,57.56
2023-02-14T04:28:42.232Z,57.52
2023-02-14T04:29:46.653Z,57.79
2023-02-14T04:30:51.059Z,58.32
2023-02-14T04:31:55.864Z,58.59
2023-02-14T04:33:00.182Z,58.58
2023-02-14T04:34:04.452Z,58.42
2023-02-14T04:35:08.761Z,58.81
2023-02-14T04:36:13.090Z,58.64
2023-02-14T04:37:17.363Z,58.01
2023-02-14T04:38:21.693Z,58.45
2023-02-14T04:39:25.969Z,58.27
2023-02-14T04:40:30.267Z,58.7
2023-02-14T04:41:34.642Z,58.73
2023-02-14T04:42:38.970Z,58.68
2023-02-14T04:43:43.281Z,57.91
2023-02-14T04:44:47.602Z,58.11
2023-02-14T04:45:51.894Z,57.77
2023-02-14T04:46:56.344Z,57.91
2023-02-14T04:48:00.652Z,58.24
2023-02-14T04:49:04.938Z,58.29
2023-02-14T04:50:09.315Z,58.69
2023-02-14T04:51:13.634Z,58.66
2023-02-14T04:52:17.912Z,58.19
2023-02-14T04:53:22.208Z,58.14
2023-02-14T04:54:26.569Z,58.08
2023-02-14T04:55:30.846Z,57.85
2023-02-14T04:56:35.143Z,58.01
2023-02-14T04:57:39.460Z,57.9
2023-02-14T04:58:43.762Z,58.04
2023-02-14T04:59:48.074Z,57.74
2023-02-14T05:00:52.558Z,57.68
2023-02-14T05:01:57.239Z,58.61
2023-02-14T05:03:01.565Z,58.2
2023-02-14T05:04:05.895Z,58.41
2023-02-14T05:05:10.215Z,58.83
2023-02-14T05:06:14.541Z,58.6
2023-02-14T05:07:18.855Z,57.46
2023-02-14T05:08:23.122Z,58.02
2023-02-14T05:09:27.433Z,58.64
2023-02-14T05:10:31.747Z,58.38
2023-02-14T05:11:36.064Z,58.11
2023-02-14T05:12:40.398Z,57.73
2023-02-14T05:13:44.698Z,57.31
2023-02-14T05:14:48.987Z,56.98
2023-02-14T05:15:53.422Z,56.88
2023-02-14T05:16:57.819Z,56.6
2023-02-14T05:18:02.282Z,56.44
2023-02-14T05:19:06.600Z,56.36
2023-02-14T05:20:10.897Z,56.21
2023-02-14T05:21:15.188Z,56.17
2023-02-14T05:22:20.648Z,56.29
2023-02-14T05:23:24.953Z,56.18
2023-02-14T05:24:29.278Z,56.1
2023-02-14T05:25:33.605Z,56.08
2023-02-14T05:26:37.905Z,56.05
2023-02-14T05:27:42.215Z,56.06
2023-02-14T05:28:46.481Z,56.18
2023-02-14T05:29:50.907Z,56
2023-02-14T05:30:55.431Z,56.02
2023-02-14T05:31:59.938Z,56.16
2023-02-14T05:33:04.257Z,55.97
2023-02-14T05:34:08.552Z,56.08
2023-02-14T05:35:12.873Z,56.12
2023-02-14T05:36:17.164Z,56.08
2023-02-14T05:37:21.468Z,56.21
2023-02-14T05:38:25.765Z,56.24
2023-02-14T05:39:30.052Z,56.25
2023-02-14T05:40:34.340Z,56.34
2023-02-14T05:42:41.116Z,56.55
2023-02-14T05:43:45.432Z,56.51
2023-02-14T05:44:49.751Z,56.76
2023-02-14T05:45:54.356Z,56.55
2023-02-14T05:46:58.684Z,56.6
2023-02-14T05:48:02.988Z,56.85
2023-02-14T05:49:07.349Z,56.73
2023-02-14T05:50:11.695Z,56.88
2023-02-14T05:51:16.088Z,57.04
2023-02-14T05:52:20.416Z,57.1
2023-02-14T05:53:24.684Z,57.07
2023-02-14T05:54:29.028Z,57.13
2023-02-14T05:55:33.430Z,57.3
2023-02-14T05:56:37.698Z,57.12
2023-02-14T05:57:42.057Z,57.15
2023-02-14T05:58:46.366Z,57.22
2023-02-14T05:59:50.662Z,57.45
2023-02-14T06:00:55.030Z,57.35
2023-02-14T06:01:59.509Z,57.29
2023-02-14T06:03:03.866Z,57.3
2023-02-14T06:04:08.453Z,57.1
2023-02-14T06:05:12.762Z,57.19
2023-02-14T06:06:17.127Z,57.21
2023-02-14T06:07:21.428Z,57.11
2023-02-14T06:08:28.749Z,57.12
2023-02-14T06:09:33.137Z,57.11
2023-02-14T06:10:37.449Z,57.14
2023-02-14T06:11:41.753Z,56.94
2023-02-14T06:12:46.060Z,56.9
2023-02-14T06:13:50.374Z,57.12
2023-02-14T06:14:54.672Z,57.31
2023-02-14T06:15:58.956Z,57.06
2023-02-14T06:17:03.512Z,56.96
2023-02-14T06:18:07.825Z,57.08
2023-02-14T06:19:12.157Z,57.1
2023-02-14T06:20:16.460Z,57.35
2023-02-14T06:21:20.827Z,57.42
2023-02-14T06:22:25.161Z,57.28
2023-02-14T06:23:29.450Z,57.39
2023-02-14T06:24:33.734Z,57.28
2023-02-14T06:25:38.016Z,57.55
2023-02-14T06:26:42.321Z,57.62
2023-02-14T06:27:49.419Z,57.86
2023-02-14T06:28:53.774Z,57.77
2023-02-14T06:29:58.316Z,57.66
2023-02-14T06:31:04.569Z,57.74
2023-02-14T06:32:09.876Z,57.76
2023-02-14T06:33:14.272Z,57.89
2023-02-14T06:34:18.556Z,57.51
2023-02-14T06:35:22.857Z,57.88
2023-02-14T06:36:27.607Z,58.03
2023-02-14T06:37:31.920Z,57.97
2023-02-14T06:38:36.243Z,57.98
2023-02-14T06:39:40.539Z,58.13
2023-02-14T06:40:44.837Z,57.9
2023-02-14T06:41:49.145Z,58.01
2023-02-14T06:42:53.452Z,57.86
2023-02-14T06:43:57.735Z,58.02
2023-02-14T06:45:02.008Z,58.06
2023-02-14T06:46:06.523Z,58.1
2023-02-14T06:47:10.871Z,57.79
2023-02-14T06:48:16.201Z,57.79
2023-02-14T06:49:20.556Z,58.03
2023-02-14T06:50:24.840Z,57.82
2023-02-14T06:51:29.128Z,57.56
2023-02-14T06:52:33.510Z,58.25
2023-02-14T06:53:37.817Z,58.26
2023-02-14T06:54:42.131Z,58.27
2023-02-14T06:55:46.791Z,58.34
2023-02-14T06:56:51.098Z,58.45
2023-02-14T06:57:55.401Z,58.47
2023-02-14T06:58:59.710Z,58.52
2023-02-14T07:00:03.992Z,58.44
2023-02-14T07:01:08.474Z,58.61
2023-02-14T07:02:13.086Z,58.28
2023-02-14T07:03:17.428Z,58.45
2023-02-14T07:04:21.735Z,58.43
2023-02-14T07:05:27.054Z,58.34
2023-02-14T07:06:31.349Z,58.57
2023-02-14T07:07:35.636Z,58.5
2023-02-14T07:08:39.970Z,58.58
2023-02-14T07:09:46.988Z,58.57
2023-02-14T07:10:51.263Z,58.33
2023-02-14T07:11:55.593Z,58.33
2023-02-14T07:12:59.872Z,58.38
2023-02-14T07:14:04.296Z,58.09
2023-02-14T07:15:08.686Z,58
2023-02-14T07:16:13.198Z,57.58
2023-02-14T07:17:17.501Z,57.74
2023-02-14T07:18:21.828Z,56.95
2023-02-14T07:19:26.154Z,57.1
2023-02-14T07:20:30.577Z,57.01
2023-02-14T07:21:35.002Z,56.74
2023-02-14T07:22:39.311Z,56.47
2023-02-14T07:23:43.609Z,56.32
2023-02-14T07:24:47.909Z,56.08
2023-02-14T07:25:52.198Z,55.95
2023-02-14T07:26:56.590Z,55.54
2023-02-14T07:28:00.871Z,55.52
2023-02-14T07:29:05.249Z,55.2
2023-02-14T07:30:09.784Z,55.51
2023-02-14T07:31:14.683Z,55.15
2023-02-14T07:32:19.534Z,55.04
2023-02-14T07:33:23.904Z,54.82
2023-02-14T07:34:28.360Z,54.82
2023-02-14T07:35:32.660Z,54.88
2023-02-14T07:36:36.954Z,54.72
2023-02-14T07:37:41.248Z,54.92
2023-02-14T07:38:45.540Z,54.9
2023-02-14T07:39:49.954Z,54.83
2023-02-14T07:40:56.885Z,54.67
2023-02-14T07:42:01.362Z,54.63
2023-02-14T07:43:05.655Z,54.55
2023-02-14T07:44:09.976Z,54.53
2023-02-14T07:45:24.167Z,54.58
2023-02-14T07:46:28.772Z,54.58
2023-02-14T07:47:33.105Z,54.58
2023-02-14T07:48:37.681Z,54.46
2023-02-14T07:49:42.026Z,54.37
2023-02-14T07:50:46.323Z,54.56
2023-02-14T07:51:50.652Z,54.39
2023-02-14T07:52:56.016Z,54.27
2023-02-14T07:54:00.306Z,54.5
2023-02-14T07:55:04.674Z,54.52
2023-02-14T07:56:08.948Z,54.36
2023-02-14T07:57:13.343Z,54.26
2023-02-14T07:58:17.641Z,54.09
2023-02-14T07:59:23.054Z,54.03
2023-02-14T08:00:28.779Z,53.89
2023-02-14T08:01:33.192Z,53.8
2023-02-14T08:02:37.556Z,53.76
2023-02-14T08:03:41.830Z,53.8
2023-02-14T08:04:46.223Z,53.7
2023-02-14T08:05:50.536Z,53.64
2023-02-14T08:06:54.864Z,53.68
2023-02-14T08:07:59.135Z,53.61
2023-02-14T08:09:03.464Z,53.37
2023-02-14T08:10:07.804Z,53.35
2023-02-14T08:11:12.110Z,53.45
2023-02-14T08:12:16.455Z,53.25
2023-02-14T08:13:20.768Z,53.2
2023-02-14T08:14:25.336Z,53.2
2023-02-14T08:15:29.666Z,53.14
2023-02-14T08:16:34.319Z,53.34
2023-02-14T08:17:38.712Z,53.25
2023-02-14T08:18:43.064Z,53.25
2023-02-14T08:19:48.387Z,53.3
2023-02-14T08:20:52.955Z,53.33
2023-02-14T08:21:57.272Z,53.36
2023-02-14T08:23:01.536Z,53.44
2023-02-14T08:24:05.818Z,53.33
2023-02-14T08:25:10.128Z,53.36
2023-02-14T08:26:14.423Z,53.44
2023-02-14T08:27:18.703Z,53.41
2023-02-14T08:28:26.262Z,53.46
2023-02-14T08:29:30.560Z,53.5
2023-02-14T08:30:35.103Z,53.46
2023-02-14T08:31:39.677Z,53.43
2023-02-14T08:32:44.311Z,53.42
2023-02-14T08:33:48.605Z,53.37
2023-02-14T08:34:53.074Z,53.36
2023-02-14T08:35:57.369Z,53.3
2023-02-14T08:37:01.656Z,53.25
2023-02-14T08:38:05.949Z,53.24
2023-02-14T08:39:10.320Z,53.23
2023-02-14T08:40:14.629Z,53.23
2023-02-14T08:41:19.023Z,53.22
2023-02-14T08:42:23.387Z,53.23
2023-02-14T08:43:27.667Z,53.2
2023-02-14T08:44:32.097Z,53.28
2023-02-14T08:45:36.471Z,53.32
2023-02-14T08:46:41.059Z,53.27
2023-02-14T08:47:45.420Z,53.38
2023-02-14T08:48:49.744Z,53.49
2023-02-14T08:49:54.082Z,53.44
2023-02-14T08:50:59.287Z,53.41
2023-02-14T08:52:03.826Z,52.97
2023-02-14T08:53:08.111Z,50.75
2023-02-14T08:54:12.431Z,49
2023-02-14T08:55:16.822Z,47.96
2023-02-14T08:56:21.202Z,46.95
2023-02-14T08:57:25.534Z,46.28
2023-02-14T08:58:32.786Z,45.39
2023-02-14T08:59:37.221Z,44.89
2023-02-14T09:00:41.905Z,44.42
2023-02-14T09:01:46.440Z,44.56
2023-02-14T09:02:50.703Z,43.53
2023-02-14T09:03:55.315Z,43.82
2023-02-14T09:05:00.744Z,42.79
2023-02-14T09:06:05.059Z,42.81
2023-02-14T09:07:09.525Z,42.48
2023-02-14T09:08:13.913Z,42.18
2023-02-14T09:09:18.253Z,41.95
2023-02-14T09:10:22.685Z,41.51
2023-02-14T09:11:27.110Z,41.36
2023-02-14T09:12:31.387Z,41.62
2023-02-14T09:13:35.710Z,41.05
2023-02-14T09:14:40.063Z,41.01
2023-02-14T09:15:44.521Z,41.05
2023-02-14T09:16:49.189Z,41.12
2023-02-14T09:17:53.740Z,40.88
2023-02-14T09:18:58.225Z,40.9
2023-02-14T09:20:02.651Z,40.72
2023-02-14T09:21:06.985Z,40.89
2023-02-14T09:22:11.314Z,40.7
2023-02-14T09:23:15.632Z,40.53
2023-02-14T09:24:19.919Z,40.67
2023-02-14T09:25:24.243Z,40.25
2023-02-14T09:26:28.602Z,41.86
2023-02-14T09:27:32.907Z,46.46
2023-02-14T09:28:37.319Z,46.66
2023-02-14T09:29:41.636Z,47.26
2023-02-14T09:30:45.993Z,47.83
2023-02-14T09:31:50.744Z,47.92
2023-02-14T09:32:55.113Z,47.79
2023-02-14T09:33:59.388Z,48.17
2023-02-14T09:35:04.722Z,48.04
2023-02-14T09:36:09.039Z,47.84
2023-02-14T09:37:13.347Z,47.7
2023-02-14T09:38:19.906Z,48.04
2023-02-14T09:39:24.231Z,48.07
2023-02-14T09:40:28.536Z,47.95
2023-02-14T09:41:32.870Z,47.92
2023-02-14T09:42:37.167Z,47.9
2023-02-14T09:43:41.452Z,47.81
2023-02-14T09:44:45.906Z,47.84
2023-02-14T09:45:50.313Z,47.95
2023-02-14T09:46:54.656Z,47.83
2023-02-14T09:47:58.972Z,47.86
2023-02-14T09:49:03.473Z,48.15
2023-02-14T09:50:08.178Z,48.16
2023-02-14T09:51:12.483Z,48.02
2023-02-14T09:52:18.540Z,48.1
2023-02-14T09:53:22.897Z,48.13
2023-02-14T09:54:27.231Z,48.35
2023-02-14T09:55:32.613Z,48.02
2023-02-14T09:56:52.630Z,48.27
2023-02-14T09:57:56.947Z,48.46
2023-02-14T09:59:01.224Z,48.44
2023-02-14T10:00:05.561Z,48.38
2023-02-14T10:01:10.064Z,48.23
2023-02-14T10:02:14.545Z,48.06
2023-02-14T10:03:18.864Z,47.97
2023-02-14T10:04:23.181Z,47.93
2023-02-14T10:05:27.480Z,47.81
2023-02-14T10:06:31.772Z,47.66
2023-02-14T10:07:36.091Z,47.57
2023-02-14T10:08:40.401Z,47.62
2023-02-14T10:09:44.705Z,47.68
2023-02-14T10:10:49.012Z,47.57
2023-02-14T10:11:53.398Z,47.64
2023-02-14T10:12:57.761Z,47.56
2023-02-14T10:14:02.073Z,47.77
2023-02-14T10:15:06.392Z,47.73
2023-02-14T10:16:10.912Z,47.79
2023-02-14T10:17:15.192Z,47.78
2023-02-14T10:18:19.544Z,47.85
2023-02-14T10:19:23.831Z,47.91
2023-02-14T10:20:28.125Z,47.96
2023-02-14T10:21:32.825Z,48.09
2023-02-14T10:22:37.110Z,48
2023-02-14T10:23:41.447Z,48.07
2023-02-14T10:24:45.742Z,48.07
2023-02-14T10:25:50.082Z,48.12
2023-02-14T10:26:54.403Z,48.27
2023-02-14T10:27:58.701Z,48.28
2023-02-14T10:29:03.031Z,48.35
2023-02-14T10:30:07.435Z,48.33
2023-02-14T10:31:11.949Z,48.43
2023-02-14T10:32:16.452Z,48.52
2023-02-14T10:33:20.773Z,48.55
2023-02-14T10:34:25.052Z,48.47
2023-02-14T10:35:29.342Z,48.62
2023-02-14T10:36:33.627Z,48.54
2023-02-14T10:37:37.932Z,48.61
2023-02-14T10:38:42.211Z,48.76
2023-02-14T10:39:46.565Z,48.66
2023-02-14T10:40:50.874Z,48.66
2023-02-14T10:41:55.179Z,48.66
2023-02-14T10:42:59.454Z,48.77
2023-02-14T10:44:03.793Z,48.69
2023-02-14T10:45:08.104Z,48.61
2023-02-14T10:46:12.690Z,48.58
2023-02-14T10:47:17.055Z,48.62
2023-02-14T10:48:21.371Z,48.66
2023-02-14T10:49:25.737Z,48.6
2023-02-14T10:50:30.057Z,48.41
2023-02-14T10:51:36.096Z,48.38
2023-02-14T10:52:40.379Z,48.34
2023-02-14T10:53:44.688Z,48.18
2023-02-14T10:54:49.066Z,48.05
2023-02-14T10:55:53.387Z,48.07
2023-02-14T10:57:00.357Z,47.91
2023-02-14T10:58:04.689Z,47.87
2023-02-14T10:59:08.985Z,47.81
2023-02-14T11:00:13.325Z,47.74
2023-02-14T11:01:17.881Z,47.71
2023-02-14T11:02:22.246Z,47.77
2023-02-14T11:03:26.713Z,47.73
2023-02-14T11:04:31.021Z,47.77
2023-02-14T11:05:35.348Z,47.72
2023-02-14T11:06:39.714Z,47.81
2023-02-14T11:07:44.021Z,47.81
2023-02-14T11:08:48.402Z,47.91
2023-02-14T11:09:53.240Z,47.97
2023-02-14T11:10:57.665Z,47.97
2023-02-14T11:12:02.054Z,48.13
2023-02-14T11:13:06.354Z,48.05
2023-02-14T11:14:10.674Z,48.16
2023-02-14T11:15:15.130Z,48.15
2023-02-14T11:16:19.568Z,48.26
2023-02-14T11:17:23.924Z,48.29
2023-02-14T11:18:28.215Z,48.36
2023-02-14T11:19:32.533Z,48.34
2023-02-14T11:20:36.844Z,48.43
2023-02-14T11:21:41.324Z,48.53
2023-02-14T11:22:45.667Z,48.5
2023-02-14T11:23:49.962Z,48.47
2023-02-14T11:24:54.260Z,48.6
2023-02-14T11:25:59.348Z,48.67
2023-02-14T11:27:03.792Z,48.65
2023-02-14T11:28:08.116Z,48.63
2023-02-14T11:29:12.412Z,48.64
2023-02-14T11:30:16.827Z,48.66
2023-02-14T11:31:21.514Z,48.74
2023-02-14T11:32:25.888Z,48.82
2023-02-14T11:33:30.194Z,48.84
2023-02-14T11:34:34.473Z,48.92
2023-02-14T11:35:38.760Z,49.04
2023-02-14T11:36:43.097Z,48.86
2023-02-14T11:37:47.403Z,48.94
2023-02-14T11:38:51.676Z,48.79
2023-02-14T11:39:56.027Z,48.84
2023-02-14T11:41:01.689Z,48.86
2023-02-14T11:42:06.136Z,48.88
2023-02-14T11:43:16.333Z,48.93
2023-02-14T11:44:20.603Z,48.99
2023-02-14T11:45:24.879Z,48.92
2023-02-14T11:46:29.366Z,48.93
2023-02-14T11:47:33.717Z,48.85
2023-02-14T11:48:40.838Z,48.92
2023-02-14T11:49:45.126Z,48.88
2023-02-14T11:50:49.405Z,48.9
2023-02-14T11:51:53.691Z,48.94
2023-02-14T11:52:58.179Z,48.99
2023-02-14T11:54:02.665Z,49.15
2023-02-14T11:55:06.969Z,49.17
2023-02-14T11:56:11.253Z,49.1
2023-02-14T11:57:15.555Z,49.18
2023-02-14T11:58:20.852Z,49.16
2023-02-14T11:59:25.214Z,49.21
2023-02-14T12:00:29.509Z,49.35
2023-02-14T12:01:33.773Z,49.32
2023-02-14T12:02:38.295Z,49.29
2023-02-14T12:03:42.948Z,49.38
2023-02-14T12:04:48.818Z,49.24
2023-02-14T12:05:53.178Z,49.26
2023-02-14T12:06:57.480Z,49.24
2023-02-14T12:08:01.913Z,49.24
2023-02-14T12:09:06.223Z,49.11
2023-02-14T12:10:10.542Z,49
2023-02-14T12:11:14.837Z,48.98
2023-02-14T12:12:19.153Z,48.92
2023-02-14T12:13:23.451Z,48.9
2023-02-14T12:14:27.720Z,48.77
2023-02-14T12:15:32.171Z,48.66
2023-02-14T12:16:36.468Z,48.6
2023-02-14T12:17:40.795Z,48.52
2023-02-14T12:18:45.112Z,48.51
2023-02-14T12:19:51.661Z,48.4
2023-02-14T12:20:55.917Z,48.35
2023-02-14T12:22:00.195Z,48.34
2023-02-14T12:23:04.483Z,48.32
2023-02-14T12:24:08.789Z,48.41
2023-02-14T12:25:13.104Z,48.32
2023-02-14T12:26:17.394Z,48.34
2023-02-14T12:27:21.709Z,48.35
2023-02-14T12:28:25.984Z,48.29
2023-02-14T12:29:30.294Z,48.38
2023-02-14T12:30:34.621Z,48.35
2023-02-14T12:31:39.339Z,48.36
2023-02-14T12:32:43.698Z,48.45
2023-02-14T12:33:51.576Z,48.44
2023-02-14T12:34:55.830Z,48.57
2023-02-14T12:36:00.116Z,48.52
2023-02-14T12:37:04.413Z,48.63
2023-02-14T12:38:08.715Z,48.59
2023-02-14T12:39:13.026Z,48.68
2023-02-14T12:40:17.459Z,48.66
2023-02-14T12:41:21.788Z,48.7
2023-02-14T12:42:26.108Z,48.71
2023-02-14T12:43:30.440Z,48.77
2023-02-14T12:44:34.770Z,48.81
2023-02-14T12:45:39.051Z,48.91
2023-02-14T12:46:43.351Z,48.87
2023-02-14T12:47:47.634Z,48.89
2023-02-14T12:48:51.943Z,49.04
2023-02-14T12:49:56.521Z,49.02
2023-02-14T12:51:02.316Z,49.01
2023-02-14T12:52:06.699Z,49.03
2023-02-14T12:53:11.060Z,49.12
2023-02-14T12:54:15.373Z,49.15
2023-02-14T12:55:19.702Z,49.23
2023-02-14T12:56:24.052Z,49.28
2023-02-14T12:57:28.343Z,49.32
2023-02-14T12:58:32.630Z,49.48
2023-02-14T12:59:36.926Z,49.42
2023-02-14T13:00:41.231Z,49.51
2023-02-14T13:01:45.699Z,49.49
2023-02-14T13:02:50.142Z,49.5
2023-02-14T13:03:54.426Z,49.53
2023-02-14T13:04:58.730Z,49.72
2023-02-14T13:06:03.042Z,49.72
2023-02-14T13:07:07.379Z,49.59
2023-02-14T13:08:11.683Z,49.7
2023-02-14T13:09:16.022Z,49.78
2023-02-14T13:10:20.308Z,49.84
2023-02-14T13:11:24.628Z,49.83
2023-02-14T13:12:28.932Z,49.84
2023-02-14T13:13:33.347Z,49.84
2023-02-14T13:14:37.700Z,49.77
2023-02-14T13:15:42.014Z,49.74
2023-02-14T13:16:46.359Z,49.74
2023-02-14T13:17:50.693Z,49.86
2023-02-14T13:18:55.008Z,49.85
2023-02-14T13:19:59.303Z,49.89
2023-02-14T13:21:04.262Z,49.74
2023-02-14T13:22:08.599Z,49.71
2023-02-14T13:23:12.911Z,49.5
2023-02-14T13:24:17.247Z,49.43
2023-02-14T13:25:21.520Z,49.31
2023-02-14T13:26:25.843Z,49.22
2023-02-14T13:27:31.115Z,49.07
2023-02-14T13:28:35.418Z,48.98
2023-02-14T13:29:39.724Z,48.99
2023-02-14T13:30:44.330Z,48.87
2023-02-14T13:31:49.124Z,48.84
2023-02-14T13:32:53.457Z,48.79
2023-02-14T13:33:57.738Z,48.68
2023-02-14T13:35:02.051Z,48.71
2023-02-14T13:36:06.365Z,48.66
2023-02-14T13:37:10.664Z,48.68
2023-02-14T13:38:15.170Z,48.66
2023-02-14T13:39:19.457Z,48.68
2023-02-14T13:40:23.737Z,48.73
2023-02-14T13:41:28.211Z,48.74
2023-02-14T13:42:32.585Z,48.76
2023-02-14T13:43:36.885Z,48.83
2023-02-14T13:44:41.177Z,48.78
2023-02-14T13:45:45.639Z,48.9
2023-02-14T13:46:50.179Z,48.85
2023-02-14T13:47:54.772Z,48.94
2023-02-14T13:48:59.108Z,48.95
2023-02-14T13:50:03.701Z,48.94
2023-02-14T13:51:08.017Z,48.97
2023-02-14T13:52:14.561Z,49.01
2023-02-14T13:53:18.855Z,49.02
2023-02-14T13:54:23.552Z,48.98